YM Initiative — A8HX4 — position and weather

sailwx.info

Track history (hours):
 
Tides and Currents Weather Stations Pressure Air Temp Water Temp Dewpoint Dewpoint Depression Visibility Wind Speed Wind Dir Waves Ship Positions

YM Initiative

Last reported at 2017-Oct-13 23:03 UTC. Time now 2017-Oct-18 09:01 UTC.
Position N 24°19' E 118°39'.

Length 173 m; draft 7.7 m.

Type: Cargo ship. MMSI: 635961368.

Date/timePositionNaut miles runAvg speedWind from/ knotsBaromVisibWave heightAir tempDewpointWater temp
2017-Oct-13 23:03N 24°19' E 118°39'4 9.8
2017-Oct-13 22:36N 24°18' E 118°34'110.9
2017-Oct-13 22:28N 24°18' E 118°33'511.6
2017-Oct-13 22:00N 24°18' E 118°27'612.8
2017-Oct-13 21:30N 24°18' E 118°20'714.1
2017-Oct-13 21:00N 24°19' E 118°12'612.8
2017-Oct-13 20:30N 24°23' E 118°07'611.2
2017-Oct-13 20:01N 24°27' E 118°03'4 8.9
2017-Oct-13 19:31N 24°31' E 118°05'0 0.1
2017-Oct-13 18:45N 24°31' E 118°05'0 0.0
2017-Oct-13 18:30N 24°31' E 118°05'0 0.0
2017-Oct-13 17:57N 24°31' E 118°05'0 0.0
2017-Oct-13 17:18N 24°31' E 118°05'0 0.0
2017-Oct-13 17:00N 24°31' E 118°05'0 0.0
2017-Oct-13 16:24N 24°31' E 118°05'0 0.0
2017-Oct-13 16:00N 24°31' E 118°05'0 0.0
2017-Oct-13 15:30N 24°31' E 118°05'0 0.0
2017-Oct-13 15:00N 24°31' E 118°05'0 0.0
2017-Oct-13 14:27N 24°31' E 118°05'0 0.0
2017-Oct-13 14:00N 24°31' E 118°05'0 0.0
2017-Oct-13 13:30N 24°31' E 118°05'0 0.0
2017-Oct-13 13:00N 24°31' E 118°05'0 0.0
2017-Oct-13 12:30N 24°31' E 118°05'0 0.0
2017-Oct-13 11:54N 24°31' E 118°05'0 0.0
2017-Oct-13 11:27N 24°31' E 118°05'0 0.0
2017-Oct-13 10:57N 24°31' E 118°05'0 0.0
2017-Oct-13 10:30N 24°31' E 118°05'0 0.0
2017-Oct-13 09:57N 24°31' E 118°05'0 0.0
2017-Oct-13 09:27N 24°31' E 118°05'0 0.5
2017-Oct-13 09:01N 24°31' E 118°05'5 9.6
2017-Oct-13 08:31N 24°26' E 118°03'612.2
2017-Oct-13 08:00N 24°22' E 118°08'612.8
2017-Oct-13 07:30N 24°18' E 118°13'611.0
2017-Oct-13 07:00N 24°16' E 118°19'4 8.6
2017-Oct-13 06:30N 24°12' E 118°19'611.1
2017-Oct-13 06:00N 24°06' E 118°19'510.7
2017-Oct-13 05:30N 24°02' E 118°16'611.6
2017-Oct-13 04:59N 23°57' E 118°12'611.8
2017-Oct-13 04:30N 23°53' E 118°07'249 7.9
2017-Oct-11 20:56N 22°28' E 113°52'4 7.7
2017-Oct-11 20:25N 22°24' E 113°54'324 7.4
2017-Oct-10 00:44N 22°29' E 119°44'416.8
2017-Oct-10 00:30N 22°30' E 119°49'816.7
2017-Oct-10 00:00N 22°31' E 119°58'816.7
2017-Oct-09 23:30N 22°32' E 120°07'816.5
2017-Oct-09 23:00N 22°33' E 120°15'4 7.5
2017-Oct-09 22:30N 22°33' E 120°19'0 0.1
2017-Oct-09 19:23N 22°33' E 120°19'0 0.0
2017-Oct-09 18:35N 22°33' E 120°19'0 0.1
2017-Oct-09 18:26N 22°33' E 120°19'0 0.0
2017-Oct-09 17:47N 22°33' E 120°19'0 0.0
2017-Oct-09 17:29N 22°33' E 120°19'0 0.0
2017-Oct-09 16:23N 22°33' E 120°19'0 0.0
2017-Oct-09 13:53N 22°33' E 120°19'0 0.0
2017-Oct-09 12:23N 22°33' E 120°19'0 0.0
2017-Oct-09 11:59N 22°33' E 120°19'1 2.7
2017-Oct-09 11:30N 22°33' E 120°18'510.6
2017-Oct-09 11:00N 22°32' E 120°12'815.7
2017-Oct-09 10:30N 22°39' E 120°09'814.9
2017-Oct-09 09:57N 22°46' E 120°04'  
Track history (hours):
 
Tides and Currents Weather Stations Pressure Air Temp Water Temp Dewpoint Dewpoint Depression Visibility Wind Speed Wind Dir Waves Ship Positions

YM Initiative

Last reported at 2017-Oct-13 23:03 UTC. Time now 2017-Oct-18 09:01 UTC.
Position N 24°19' E 118°39'.

Length 173 m; draft 7.7 m.

Type: Cargo ship. MMSI: 635961368.

Date/timePositionNaut miles runAvg speedWind from/ knotsBaromVisibWave heightAir tempDewpointWater temp
2017-Oct-13 23:03N 24°19' E 118°39'4 9.8
2017-Oct-13 22:36N 24°18' E 118°34'110.9
2017-Oct-13 22:28N 24°18' E 118°33'511.6
2017-Oct-13 22:00N 24°18' E 118°27'612.8
2017-Oct-13 21:30N 24°18' E 118°20'714.1
2017-Oct-13 21:00N 24°19' E 118°12'612.8
2017-Oct-13 20:30N 24°23' E 118°07'611.2
2017-Oct-13 20:01N 24°27' E 118°03'4 8.9
2017-Oct-13 19:31N 24°31' E 118°05'0 0.1
2017-Oct-13 18:45N 24°31' E 118°05'0 0.0
2017-Oct-13 18:30N 24°31' E 118°05'0 0.0
2017-Oct-13 17:57N 24°31' E 118°05'0 0.0
2017-Oct-13 17:18N 24°31' E 118°05'0 0.0
2017-Oct-13 17:00N 24°31' E 118°05'0 0.0
2017-Oct-13 16:24N 24°31' E 118°05'0 0.0
2017-Oct-13 16:00N 24°31' E 118°05'0 0.0
2017-Oct-13 15:30N 24°31' E 118°05'0 0.0
2017-Oct-13 15:00N 24°31' E 118°05'0 0.0
2017-Oct-13 14:27N 24°31' E 118°05'0 0.0
2017-Oct-13 14:00N 24°31' E 118°05'0 0.0
2017-Oct-13 13:30N 24°31' E 118°05'0 0.0
2017-Oct-13 13:00N 24°31' E 118°05'0 0.0
2017-Oct-13 12:30N 24°31' E 118°05'0 0.0
2017-Oct-13 11:54N 24°31' E 118°05'0 0.0
2017-Oct-13 11:27N 24°31' E 118°05'0 0.0
2017-Oct-13 10:57N 24°31' E 118°05'0 0.0
2017-Oct-13 10:30N 24°31' E 118°05'0 0.0
2017-Oct-13 09:57N 24°31' E 118°05'0 0.0
2017-Oct-13 09:27N 24°31' E 118°05'0 0.5
2017-Oct-13 09:01N 24°31' E 118°05'5 9.6
2017-Oct-13 08:31N 24°26' E 118°03'612.2
2017-Oct-13 08:00N 24°22' E 118°08'612.8
2017-Oct-13 07:30N 24°18' E 118°13'611.0
2017-Oct-13 07:00N 24°16' E 118°19'4 8.6
2017-Oct-13 06:30N 24°12' E 118°19'611.1
2017-Oct-13 06:00N 24°06' E 118°19'510.7
2017-Oct-13 05:30N 24°02' E 118°16'611.6
2017-Oct-13 04:59N 23°57' E 118°12'611.8
2017-Oct-13 04:30N 23°53' E 118°07'249 7.9
2017-Oct-11 20:56N 22°28' E 113°52'4 7.7
2017-Oct-11 20:25N 22°24' E 113°54'324 7.4
2017-Oct-10 00:44N 22°29' E 119°44'416.8
2017-Oct-10 00:30N 22°30' E 119°49'816.7
2017-Oct-10 00:00N 22°31' E 119°58'816.7
2017-Oct-09 23:30N 22°32' E 120°07'816.5
2017-Oct-09 23:00N 22°33' E 120°15'4 7.5
2017-Oct-09 22:30N 22°33' E 120°19'0 0.1
2017-Oct-09 19:23N 22°33' E 120°19'0 0.0
2017-Oct-09 18:35N 22°33' E 120°19'0 0.1
2017-Oct-09 18:26N 22°33' E 120°19'0 0.0
2017-Oct-09 17:47N 22°33' E 120°19'0 0.0
2017-Oct-09 17:29N 22°33' E 120°19'0 0.0
2017-Oct-09 16:23N 22°33' E 120°19'0 0.0
2017-Oct-09 13:53N 22°33' E 120°19'0 0.0
2017-Oct-09 12:23N 22°33' E 120°19'0 0.0
2017-Oct-09 11:59N 22°33' E 120°19'1 2.7
2017-Oct-09 11:30N 22°33' E 120°18'510.6
2017-Oct-09 11:00N 22°32' E 120°12'815.7
2017-Oct-09 10:30N 22°39' E 120°09'814.9
2017-Oct-09 09:57N 22°46' E 120°04'  

Dump ship's entire track history